Time;durP1;ratioP1;P1;durP2;ratioP2;P2;SDS_P1;SDS_P2;PMS_P1;PMS_P2;Temp;Humidity;BMP_temperature;BMP_pressure;BME280_temperature;BME280_humidity;BME280_pressure;Samples;Min_cycle;Max_cycle;Signal;HPM_P1;HPM_P2
2023/10/11 00:00:46;;;;;;;26.53;20.07;;;12.60;57.50;;;;;;5090164;28;20222;-83
2023/10/11 00:05:40;;;;;;;26.60;20.13;;;12.70;57.70;;;;;;5089692;28;20180;-83
2023/10/11 00:08:08;;;;;;;27.23;19.63;;;12.70;57.60;;;;;;5087584;28;20289;-83
2023/10/11 00:10:54;;;;;;;31.70;21.67;;;12.70;58.10;;;;;;5087078;28;20588;-83
2023/10/11 00:13:25;;;;;;;28.60;20.50;;;12.70;57.70;;;;;;5091474;28;20195;-83
2023/10/11 00:15:53;;;;;;;27.83;19.90;;;12.70;57.60;;;;;;5074323;28;20188;-81
2023/10/11 00:18:21;;;;;;;28.63;20.43;;;12.70;57.60;;;;;;5104597;28;20176;-82
2023/10/11 00:20:52;;;;;;;28.17;19.83;;;12.70;57.50;;;;;;5081542;28;20189;-81
2023/10/11 00:23:21;;;;;;;31.37;21.37;;;12.70;57.50;;;;;;5078926;28;20211;-81
2023/10/11 00:25:50;;;;;;;27.57;20.83;;;12.70;57.50;;;;;;5077653;28;20242;-81
2023/10/11 00:28:18;;;;;;;29.00;21.27;;;12.70;57.60;;;;;;5090836;28;20238;-81
2023/10/11 00:30:46;;;;;;;28.20;21.53;;;12.70;57.70;;;;;;5076246;28;20172;-81
2023/10/11 00:33:13;;;;;;;30.03;20.90;;;12.70;57.70;;;;;;5083210;28;20177;-81
2023/10/11 00:35:50;;;;;;;30.00;20.67;;;12.80;57.80;;;;;;5091630;28;20637;-81
2023/10/11 00:38:20;;;;;;;29.63;21.00;;;12.80;57.70;;;;;;5086930;28;20184;-81
2023/10/11 00:43:34;;;;;;;29.47;21.00;;;12.90;57.90;;;;;;5088150;28;20220;-81
2023/10/11 00:46:09;;;;;;;29.80;20.53;;;12.90;57.90;;;;;;5089750;28;20177;-81
2023/10/11 00:48:51;;;;;;;27.93;21.60;;;12.90;58.00;;;;;;5088534;28;20172;-82
2023/10/11 00:51:32;;;;;;;28.33;21.60;;;12.90;58.10;;;;;;5076684;28;20641;-82
2023/10/11 00:54:04;;;;;;;29.30;21.10;;;12.90;58.10;;;;;;5075784;28;20193;-82
2023/10/11 00:56:33;;;;;;;28.43;21.00;;;12.90;58.10;;;;;;5078636;28;20181;-82
2023/10/11 00:59:10;;;;;;;31.17;22.67;;;13.00;58.20;;;;;;5077523;28;20188;-82
2023/10/11 01:01:37;;;;;;;32.00;22.83;;;13.00;58.30;;;;;;5086742;28;20185;-82
2023/10/11 01:04:04;;;;;;;32.30;23.33;;;13.00;58.30;;;;;;5090159;28;20236;-82
2023/10/11 01:06:29;;;;;;;34.33;24.27;;;13.00;58.30;;;;;;5107037;28;20168;-82
2023/10/11 01:08:55;;;;;;;31.53;23.07;;;13.00;58.30;;;;;;5102919;28;20317;-82
2023/10/11 01:11:22;;;;;;;35.70;22.67;;;13.00;58.40;;;;;;5085614;28;20181;-82
2023/10/11 01:13:53;;;;;;;32.63;22.77;;;13.00;58.50;;;;;;5076357;28;20192;-82
2023/10/11 01:16:25;;;;;;;32.00;22.90;;;13.00;58.60;;;;;;5089505;28;20218;-82
2023/10/11 01:18:51;;;;;;;32.37;22.90;;;13.00;58.80;;;;;;5092352;28;20169;-82
2023/10/11 01:21:16;;;;;;;30.70;23.43;;;13.10;58.80;;;;;;5077962;28;20177;-82
2023/10/11 01:23:42;;;;;;;32.83;23.63;;;13.10;58.90;;;;;;5083327;28;20236;-82
2023/10/11 01:26:08;;;;;;;32.63;23.67;;;13.10;58.90;;;;;;5088416;28;20545;-82
2023/10/11 01:28:48;;;;;;;33.57;25.10;;;13.20;59.00;;;;;;5088371;28;20268;-82
2023/10/11 01:31:16;;;;;;;36.70;25.23;;;13.20;59.10;;;;;;5103427;28;20198;-82
2023/10/11 01:33:44;;;;;;;35.23;24.80;;;13.20;59.10;;;;;;5075839;28;20649;-82
2023/10/11 01:36:11;;;;;;;40.53;26.77;;;13.30;59.20;;;;;;5087566;28;20195;-82
2023/10/11 01:38:48;;;;;;;35.40;25.07;;;13.30;59.20;;;;;;5078981;28;20181;-82
2023/10/11 01:41:19;;;;;;;38.80;25.80;;;13.30;59.20;;;;;;5084358;28;20188;-82
2023/10/11 01:43:49;;;;;;;41.87;27.13;;;13.30;59.30;;;;;;5078961;28;20309;-82
2023/10/11 01:46:17;;;;;;;38.13;27.03;;;13.30;59.30;;;;;;5089114;28;20185;-82
2023/10/11 01:48:46;;;;;;;36.67;26.33;;;13.30;59.60;;;;;;5074173;28;20560;-82
2023/10/11 01:51:16;;;;;;;37.20;26.73;;;13.30;59.70;;;;;;5075893;28;20726;-82
2023/10/11 01:53:43;;;;;;;38.93;27.10;;;13.40;59.70;;;;;;5078937;28;20209;-82
2023/10/11 01:56:08;;;;;;;43.77;28.33;;;13.40;59.70;;;;;;5078266;28;20192;-82
2023/10/11 01:58:37;;;;;;;42.47;27.80;;;13.50;59.80;;;;;;5103775;28;20195;-82
2023/10/11 02:01:05;;;;;;;43.97;29.63;;;13.50;59.90;;;;;;5071801;28;20213;-82
2023/10/11 02:03:31;;;;;;;44.83;28.80;;;13.40;59.90;;;;;;5092372;28;20211;-82
2023/10/11 02:05:57;;;;;;;37.60;27.67;;;13.40;60.20;;;;;;5084388;28;20267;-82
2023/10/11 02:08:25;;;;;;;38.60;26.93;;;13.30;60.50;;;;;;5084964;28;20701;-82
2023/10/11 02:10:51;;;;;;;42.13;28.57;;;13.40;60.70;;;;;;5078781;28;20223;-82
2023/10/11 02:13:17;;;;;;;43.23;28.87;;;13.30;60.70;;;;;;5074436;28;20716;-82
2023/10/11 02:15:47;;;;;;;41.33;28.47;;;13.60;61.30;;;;;;5103536;28;20266;-82
2023/10/11 02:18:12;;;;;;;42.53;29.30;;;13.40;61.10;;;;;;5084203;28;20662;-82
2023/10/11 02:20:44;;;;;;;44.37;30.07;;;13.50;61.30;;;;;;5078210;28;20186;-82
2023/10/11 02:23:11;;;;;;;45.80;30.00;;;13.50;61.20;;;;;;5074966;28;20291;-82
2023/10/11 02:25:38;;;;;;;48.77;33.17;;;13.50;61.20;;;;;;5075579;28;20641;-82
2023/10/11 02:28:09;;;;;;;47.10;33.17;;;13.50;61.30;;;;;;5071947;28;20250;-82
2023/10/11 02:30:38;;;;;;;56.03;35.17;;;13.50;61.30;;;;;;5074617;28;20238;-82
2023/10/11 02:33:07;;;;;;;55.80;38.00;;;13.60;61.40;;;;;;5091170;28;20191;-82
2023/10/11 02:35:49;;;;;;;55.77;37.80;;;13.60;61.50;;;;;;5088606;28;20656;-82
2023/10/11 02:38:21;;;;;;;47.60;35.23;;;13.60;61.50;;;;;;5090071;28;20184;-82
2023/10/11 02:40:54;;;;;;;50.03;35.97;;;13.60;61.50;;;;;;5085499;28;20213;-82
2023/10/11 02:43:21;;;;;;;46.77;32.53;;;13.60;61.40;;;;;;5075864;28;20426;-82
2023/10/11 02:45:46;;;;;;;48.27;37.47;;;13.70;61.60;;;;;;5089742;28;20271;-82
2023/10/11 02:48:12;;;;;;;54.00;41.93;;;13.50;61.40;;;;;;5086246;28;20199;-82
2023/10/11 02:50:37;;;;;;;53.80;40.23;;;13.50;61.70;;;;;;5105925;28;20184;-82
2023/10/11 02:53:12;;;;;;;48.40;35.87;;;13.50;61.60;;;;;;5085501;28;20192;-82
2023/10/11 02:55:38;;;;;;;47.93;33.50;;;13.50;61.80;;;;;;5074164;28;20184;-82
2023/10/11 02:58:12;;;;;;;49.87;33.13;;;13.50;62.00;;;;;;5103718;28;20172;-82
2023/10/11 03:00:42;;;;;;;47.00;32.97;;;13.50;62.10;;;;;;5076328;28;20204;-82
2023/10/11 03:03:11;;;;;;;48.00;32.80;;;13.50;62.10;;;;;;5084428;28;20208;-82
2023/10/11 03:05:37;;;;;;;59.27;36.83;;;13.50;62.30;;;;;;5093179;28;20271;-82
2023/10/11 03:08:18;;;;;;;53.27;35.67;;;13.50;62.40;;;;;;5089148;28;20334;-82
2023/10/11 03:10:45;;;;;;;49.10;33.87;;;13.50;62.30;;;;;;5090035;28;20192;-82
2023/10/11 03:13:19;;;;;;;51.30;32.97;;;13.60;62.30;;;;;;5090698;28;20528;-82
2023/10/11 03:15:54;;;;;;;47.73;30.87;;;13.80;62.50;;;;;;5107662;28;20192;-82
2023/10/11 03:18:22;;;;;;;45.93;30.73;;;13.70;62.30;;;;;;5107744;28;20187;-82
2023/10/11 03:20:50;;;;;;;44.77;30.83;;;13.70;62.20;;;;;;5093295;28;20189;-82
2023/10/11 03:23:20;;;;;;;48.67;33.80;;;13.70;62.50;;;;;;5088609;28;20270;-82
2023/10/11 03:25:49;;;;;;;46.33;30.33;;;13.70;62.50;;;;;;5089747;28;20554;-82
2023/10/11 03:28:15;;;;;;;48.63;32.10;;;13.70;62.40;;;;;;5108275;28;20181;-82
2023/10/11 03:30:42;;;;;;;44.10;31.23;;;13.70;62.50;;;;;;5090408;28;20172;-84
2023/10/11 03:33:08;;;;;;;46.33;32.93;;;13.70;62.60;;;;;;5092959;28;20242;-82
2023/10/11 03:35:38;;;;;;;41.40;30.40;;;13.70;62.60;;;;;;5085677;28;20181;-83
2023/10/11 03:38:16;;;;;;;48.10;32.70;;;13.70;62.70;;;;;;5075710;28;20184;-83
2023/10/11 03:41:14;;;;;;;45.67;31.77;;;13.80;62.90;;;;;;5091919;28;20557;-83
2023/10/11 03:43:41;;;;;;;50.07;32.07;;;13.90;63.00;;;;;;5080802;28;20311;-83
2023/10/11 03:46:10;;;;;;;47.83;32.67;;;13.70;63.00;;;;;;5092203;28;20180;-83
2023/10/11 03:48:53;;;;;;;44.27;32.13;;;13.80;63.10;;;;;;5079455;28;20182;-83
2023/10/11 03:51:19;;;;;;;44.33;31.17;;;13.80;63.10;;;;;;5088895;28;20183;-82
2023/10/11 03:53:47;;;;;;;47.43;32.00;;;13.80;63.20;;;;;;5083329;28;20283;-83
2023/10/11 03:56:14;;;;;;;45.80;31.87;;;13.90;63.10;;;;;;5082590;28;20595;-82
2023/10/11 03:58:39;;;;;;;47.33;32.73;;;13.90;63.10;;;;;;5091469;28;20259;-83
2023/10/11 04:03:39;;;;;;;47.30;32.60;;;13.90;63.20;;;;;;5106423;28;20242;-82
2023/10/11 04:06:13;;;;;;;45.40;32.20;;;14.00;63.40;;;;;;5092348;28;20180;-83
2023/10/11 04:08:43;;;;;;;45.30;30.77;;;14.00;63.20;;;;;;5095281;28;20254;-83
2023/10/11 04:11:19;;;;;;;50.03;33.00;;;14.00;63.40;;;;;;5100661;28;20185;-82
2023/10/11 04:13:49;;;;;;;49.07;32.57;;;14.00;63.50;;;;;;5076182;28;20210;-83
2023/10/11 04:16:17;;;;;;;49.20;33.03;;;14.10;63.60;;;;;;5088978;28;20280;-82
2023/10/11 04:18:43;;;;;;;45.33;31.33;;;14.20;63.70;;;;;;5092654;28;20172;-82
2023/10/11 04:23:36;;;;;;;52.93;32.63;;;14.10;63.60;;;;;;5093252;28;20298;-82
2023/10/11 04:26:07;;;;;;;47.20;32.10;;;14.10;63.60;;;;;;5090504;28;20268;-82
2023/10/11 04:28:33;;;;;;;48.47;32.80;;;14.10;63.60;;;;;;5098082;28;20192;-82
2023/10/11 04:33:50;;;;;;;48.40;31.93;;;14.10;63.80;;;;;;5088705;28;20209;-82
2023/10/11 04:36:20;;;;;;;47.87;31.77;;;14.10;63.90;;;;;;5102081;28;20184;-82
2023/10/11 04:38:49;;;;;;;45.90;31.83;;;14.10;64.00;;;;;;5097355;28;20184;-82
2023/10/11 04:41:20;;;;;;;51.57;34.00;;;14.20;64.20;;;;;;5109283;27;20184;-82
2023/10/11 04:44:04;;;;;;;46.77;32.60;;;14.10;63.90;;;;;;5082276;28;20241;-82
2023/10/11 04:46:30;;;;;;;50.67;32.83;;;14.10;63.80;;;;;;5074291;28;20188;-82
2023/10/11 04:49:16;;;;;;;44.27;30.57;;;14.00;63.90;;;;;;5076292;28;20265;-82
2023/10/11 04:51:45;;;;;;;48.07;32.50;;;14.00;64.10;;;;;;5090232;28;20187;-82
2023/10/11 04:54:13;;;;;;;51.20;33.73;;;14.00;64.10;;;;;;5086606;28;20624;-82
2023/10/11 04:59:11;;;;;;;49.23;32.10;;;14.00;64.10;;;;;;5095207;28;20191;-82
2023/10/11 05:02:24;;;;;;;50.47;32.83;;;14.00;64.00;;;;;;5083161;28;20173;-83
2023/10/11 05:04:27;;;;;;;52.77;34.97;;;14.00;63.90;;;;;;5090443;28;20201;-82
2023/10/11 05:06:54;;;;;;;51.33;34.60;;;13.90;63.90;;;;;;5102502;28;20176;-82
2023/10/11 05:12:07;;;;;;;51.10;34.90;;;13.90;64.10;;;;;;5085382;28;20238;-82
2023/10/11 05:14:39;;;;;;;50.50;34.50;;;14.00;64.50;;;;;;5079279;28;20667;-81
2023/10/11 05:19:55;;;;;;;59.50;37.40;;;13.90;64.30;;;;;;5090050;28;20226;-82
2023/10/11 05:22:30;;;;;;;54.70;35.90;;;13.90;65.10;;;;;;5104493;28;20192;-82
2023/10/11 05:32:58;;;;;;;63.20;37.90;;;13.90;64.60;;;;;;5087323;28;20191;-82
2023/10/11 05:35:53;;;;;;;63.10;40.37;;;14.00;64.80;;;;;;5102561;27;20195;-84
2023/10/11 05:52:01;;;;;;;56.70;36.70;;;14.20;65.20;;;;;;5091328;28;20539;-82
2023/10/11 05:54:34;;;;;;;56.67;38.40;;;14.20;65.30;;;;;;5089293;28;20188;-82
2023/10/11 05:57:03;;;;;;;52.60;36.07;;;14.20;65.30;;;;;;5089136;28;20212;-82
2023/10/11 05:59:35;;;;;;;50.27;34.83;;;14.20;65.30;;;;;;5087883;28;20208;-82
2023/10/11 06:02:03;;;;;;;63.83;43.87;;;14.30;66.20;;;;;;5086053;28;20947;-84
2023/10/11 06:04:30;;;;;;;56.20;37.53;;;14.30;65.60;;;;;;5103400;28;20222;-82
2023/10/11 06:06:58;;;;;;;55.40;39.03;;;14.30;65.90;;;;;;5091330;28;20524;-82
2023/10/11 06:09:27;;;;;;;48.63;34.63;;;14.30;66.20;;;;;;5076126;28;20231;-82
2023/10/11 06:11:53;;;;;;;42.63;30.97;;;14.40;67.10;;;;;;5079239;28;20233;-82
2023/10/11 06:14:20;;;;;;;39.87;30.50;;;14.40;66.30;;;;;;5084831;28;20177;-82
2023/10/11 06:16:57;;;;;;;41.10;31.63;;;14.50;66.60;;;;;;5088489;28;20217;-82
2023/10/11 06:19:27;;;;;;;40.20;31.00;;;14.60;66.90;;;;;;5090364;28;20264;-82
2023/10/11 06:21:58;;;;;;;46.60;33.27;;;14.60;66.80;;;;;;5072835;28;20173;-82
2023/10/11 06:24:23;;;;;;;43.90;32.43;;;14.70;67.00;;;;;;5076514;28;20218;-82
2023/10/11 06:29:26;;;;;;;56.77;40.83;;;14.80;67.00;;;;;;5074930;28;20192;-82
2023/10/11 06:31:53;;;;;;;50.10;37.27;;;14.90;67.10;;;;;;5072755;28;20180;-82
2023/10/11 06:36:48;;;;;;;41.67;29.60;;;15.10;67.10;;;;;;5076876;28;20204;-82
2023/10/11 06:42:13;;;;;;;39.40;30.07;;;15.30;66.90;;;;;;5076335;28;20308;-82
2023/10/11 06:45:05;;;;;;;37.23;28.43;;;15.30;66.60;;;;;;5085461;28;20229;-81
2023/10/11 06:47:35;;;;;;;44.97;34.43;;;15.30;66.60;;;;;;5083929;28;20231;-82
2023/10/11 06:50:10;;;;;;;43.53;33.73;;;15.20;66.80;;;;;;5073501;28;20185;-82
2023/10/11 06:52:43;;;;;;;39.77;29.37;;;15.30;67.20;;;;;;5073193;28;20679;-83
2023/10/11 06:57:39;;;;;;;42.77;33.27;;;15.50;67.30;;;;;;5076188;28;20280;-82
2023/10/11 07:00:24;;;;;;;33.37;26.93;;;15.50;67.40;;;;;;5075535;28;20184;-82
2023/10/11 07:03:09;;;;;;;33.73;26.43;;;15.70;67.60;;;;;;5084538;28;20231;-82
2023/10/11 07:05:45;;;;;;;33.77;26.03;;;15.70;67.30;;;;;;5073783;28;20193;-82
2023/10/11 07:08:17;;;;;;;33.33;25.70;;;15.70;67.70;;;;;;5087045;28;20208;-82
2023/10/11 07:10:45;;;;;;;31.07;25.47;;;15.90;68.10;;;;;;5071770;28;20177;-82
2023/10/11 07:13:13;;;;;;;31.30;24.63;;;15.90;68.00;;;;;;5091828;28;20273;-82
2023/10/11 07:15:43;;;;;;;31.97;24.83;;;16.00;68.00;;;;;;5076484;28;20219;-82
2023/10/11 07:18:21;;;;;;;29.73;24.17;;;16.10;68.00;;;;;;5083821;28;20184;-82
2023/10/11 07:20:58;;;;;;;30.47;25.10;;;16.10;67.90;;;;;;5084939;28;20226;-82
2023/10/11 07:23:26;;;;;;;32.30;24.33;;;16.20;68.00;;;;;;5086068;28;20216;-82
2023/10/11 07:25:59;;;;;;;33.90;25.67;;;16.30;68.00;;;;;;5103844;28;20193;-82
2023/10/11 07:28:37;;;;;;;35.73;24.40;;;16.40;67.80;;;;;;5086054;28;20629;-82
2023/10/11 07:31:04;;;;;;;29.73;24.07;;;16.40;67.80;;;;;;5102175;28;20640;-82
2023/10/11 07:33:31;;;;;;;28.10;23.60;;;16.50;67.90;;;;;;5081119;28;20185;-82
2023/10/11 07:35:59;;;;;;;27.57;23.90;;;16.50;67.90;;;;;;5078004;28;20272;-82
2023/10/11 07:38:33;;;;;;;27.80;23.07;;;16.60;67.90;;;;;;5074359;28;20184;-82
2023/10/11 07:41:04;;;;;;;31.43;22.30;;;16.70;67.90;;;;;;5070721;28;20641;-82
2023/10/11 07:43:32;;;;;;;25.93;22.17;;;16.90;68.00;;;;;;5102926;28;20230;-82
2023/10/11 07:46:01;;;;;;;24.80;21.87;;;17.00;67.90;;;;;;5085786;28;20721;-82
2023/10/11 07:48:30;;;;;;;29.00;21.90;;;17.10;67.90;;;;;;5082701;28;20212;-82
2023/10/11 07:50:58;;;;;;;29.37;21.90;;;17.20;68.00;;;;;;5086822;28;20188;-83
2023/10/11 07:53:25;;;;;;;30.63;22.30;;;17.20;68.00;;;;;;5092040;28;20279;-82
2023/10/11 07:55:51;;;;;;;28.77;22.20;;;17.30;68.10;;;;;;5088532;28;20184;-82
2023/10/11 07:58:26;;;;;;;24.60;20.90;;;17.40;68.10;;;;;;5095324;28;20174;-82
2023/10/11 08:00:52;;;;;;;29.83;21.27;;;17.60;68.20;;;;;;5087345;28;20266;-82
2023/10/11 08:03:17;;;;;;;26.50;20.83;;;17.60;67.90;;;;;;5087940;28;20315;-82
2023/10/11 08:05:46;;;;;;;28.77;19.93;;;17.70;68.00;;;;;;5087942;28;20188;-82
2023/10/11 08:08:15;;;;;;;28.27;20.73;;;17.80;68.00;;;;;;5090615;28;20184;-82
2023/10/11 08:10:49;;;;;;;23.23;18.80;;;17.90;68.10;;;;;;5076446;28;20173;-82
2023/10/11 08:13:23;;;;;;;23.10;19.90;;;18.00;68.10;;;;;;5079869;28;20185;-81
2023/10/11 08:15:57;;;;;;;23.93;19.53;;;18.10;68.00;;;;;;5085637;28;20188;-81
2023/10/11 08:18:23;;;;;;;27.27;18.87;;;18.20;67.90;;;;;;5085329;28;20181;-81
2023/10/11 08:20:49;;;;;;;25.97;19.33;;;18.30;67.50;;;;;;5077593;28;20227;-80
2023/10/11 08:23:28;;;;;;;25.43;20.70;;;18.40;67.50;;;;;;5090415;28;20240;-81
2023/10/11 08:25:54;;;;;;;25.80;19.47;;;18.40;67.20;;;;;;5076153;28;20243;-81
2023/10/11 08:28:28;;;;;;;27.03;21.13;;;18.50;67.40;;;;;;5078745;28;20177;-81
2023/10/11 08:30:59;;;;;;;22.23;18.10;;;18.60;67.50;;;;;;5077757;28;20755;-81
2023/10/11 08:33:25;;;;;;;25.13;19.40;;;18.60;67.20;;;;;;5081698;28;20242;-81
2023/10/11 08:35:53;;;;;;;22.80;18.57;;;18.70;67.20;;;;;;5086549;28;20526;-84
2023/10/11 08:38:20;;;;;;;23.63;17.90;;;18.70;67.20;;;;;;5091135;28;20188;-81
2023/10/11 08:40:50;;;;;;;22.60;17.73;;;18.80;67.20;;;;;;5104791;28;20272;-81
2023/10/11 08:43:16;;;;;;;22.43;18.17;;;18.90;67.10;;;;;;5088580;28;20257;-81
2023/10/11 08:46:05;;;;;;;22.23;17.77;;;19.00;67.10;;;;;;5086791;28;20229;-81
2023/10/11 08:48:38;;;;;;;20.80;16.73;;;19.10;66.90;;;;;;5084085;28;20219;-81
2023/10/11 08:51:10;;;;;;;24.03;17.37;;;19.30;67.00;;;;;;5077762;28;20546;-81
2023/10/11 08:53:45;;;;;;;22.27;16.47;;;19.40;66.80;;;;;;5105733;28;20290;-81
2023/10/11 08:56:17;;;;;;;23.57;16.77;;;19.50;66.60;;;;;;5073873;28;20184;-80
2023/10/11 08:58:51;;;;;;;21.73;15.93;;;19.60;66.30;;;;;;5103114;28;20173;-81
2023/10/11 09:01:17;;;;;;;19.03;15.47;;;19.60;66.10;;;;;;5085232;28;20177;-81
2023/10/11 09:03:43;;;;;;;23.17;15.77;;;19.70;66.00;;;;;;5081269;28;20580;-81
2023/10/11 09:06:22;;;;;;;20.27;14.73;;;19.80;66.00;;;;;;5076707;28;20185;-81
2023/10/11 09:08:48;;;;;;;23.63;14.83;;;20.00;65.90;;;;;;5085187;28;20192;-83
2023/10/11 09:11:38;;;;;;;20.13;15.10;;;20.00;65.70;;;;;;5104490;28;20188;-81
2023/10/11 09:14:26;;;;;;;22.67;14.70;;;20.10;65.60;;;;;;5086206;28;20184;-81
2023/10/11 09:16:57;;;;;;;19.93;14.60;;;20.20;65.50;;;;;;5085862;28;20259;-81
2023/10/11 09:19:26;;;;;;;19.33;13.97;;;20.30;65.30;;;;;;5085359;28;20177;-81
2023/10/11 09:22:04;;;;;;;17.63;13.43;;;20.40;65.30;;;;;;5084580;28;20530;-84
2023/10/11 09:24:41;;;;;;;17.53;13.43;;;20.50;64.80;;;;;;5085076;28;20194;-81
2023/10/11 09:29:44;;;;;;;18.77;12.93;;;20.60;64.20;;;;;;5074594;28;20187;-81
2023/10/11 09:32:09;;;;;;;19.57;13.40;;;20.70;64.40;;;;;;5072711;28;20169;-81
2023/10/11 09:34:41;;;;;;;17.30;13.60;;;20.70;64.10;;;;;;5077051;28;20637;-82
2023/10/11 09:37:11;;;;;;;16.00;11.93;;;20.80;64.80;;;;;;5085152;28;20794;-82
2023/10/11 09:39:42;;;;;;;17.53;13.37;;;20.80;63.70;;;;;;5086177;28;20557;-81
2023/10/11 09:42:11;;;;;;;17.63;12.80;;;20.90;63.60;;;;;;5089176;28;20259;-83
2023/10/11 09:44:40;;;;;;;17.17;12.40;;;21.00;63.50;;;;;;5088037;28;20196;-81
2023/10/11 09:47:07;;;;;;;16.10;12.57;;;21.00;63.20;;;;;;5104414;28;20179;-80
2023/10/11 09:49:43;;;;;;;16.60;12.43;;;21.10;63.20;;;;;;5087031;28;20176;-83
2023/10/11 09:52:16;;;;;;;15.03;11.17;;;21.20;62.90;;;;;;5079058;28;20227;-81
2023/10/11 09:54:42;;;;;;;20.17;12.47;;;21.30;63.80;;;;;;5077532;28;20173;-81
2023/10/11 09:57:32;;;;;;;15.07;11.50;;;21.30;62.40;;;;;;5078827;28;20192;-82
2023/10/11 10:00:34;;;;;;;16.93;11.97;;;21.40;62.70;;;;;;5075606;28;20180;-81
2023/10/11 10:02:59;;;;;;;13.43;10.77;;;21.60;62.40;;;;;;5089487;28;20593;-81
2023/10/11 10:05:30;;;;;;;13.50;11.27;;;21.70;61.70;;;;;;5071700;28;20188;-82
2023/10/11 10:08:13;;;;;;;15.10;10.93;;;21.80;61.90;;;;;;5104645;28;20172;-82
2023/10/11 10:10:53;;;;;;;16.60;11.13;;;22.10;62.50;;;;;;5092701;28;20585;-82
2023/10/11 10:13:24;;;;;;;14.10;10.33;;;22.20;61.00;;;;;;5088872;28;20224;-82
2023/10/11 10:15:52;;;;;;;12.90;10.07;;;22.30;61.10;;;;;;5085291;28;20176;-81
2023/10/11 10:18:19;;;;;;;15.77;10.30;;;22.40;60.40;;;;;;5085262;28;20213;-83
2023/10/11 10:20:47;;;;;;;13.83;9.80;;;22.60;60.20;;;;;;5087823;28;20188;-84
2023/10/11 10:23:15;;;;;;;13.63;9.90;;;22.60;59.10;;;;;;5071048;28;20197;-84
2023/10/11 10:25:47;;;;;;;11.57;9.33;;;22.70;59.60;;;;;;5073814;28;20526;-83
2023/10/11 10:28:34;;;;;;;13.03;9.53;;;22.70;59.50;;;;;;5077374;28;20203;-83
2023/10/11 10:31:11;;;;;;;15.47;9.53;;;22.80;59.40;;;;;;5076752;28;20242;-83
2023/10/11 10:33:37;;;;;;;12.63;9.60;;;22.80;59.10;;;;;;5081721;28;20241;-82
2023/10/11 10:36:21;;;;;;;16.07;9.40;;;22.90;59.20;;;;;;5086493;28;20177;-82
2023/10/11 10:42:12;;;;;;;12.77;8.97;;;23.10;58.50;;;;;;5071821;28;20189;-83
2023/10/11 10:44:49;;;;;;;17.63;9.67;;;23.10;57.60;;;;;;5086933;28;20279;-83
2023/10/11 10:47:21;;;;;;;10.53;7.90;;;23.10;57.80;;;;;;5073114;28;20260;-82
2023/10/11 10:49:50;;;;;;;11.53;8.27;;;23.10;57.50;;;;;;5088799;28;20186;-83
2023/10/11 10:52:22;;;;;;;13.23;8.37;;;23.20;57.50;;;;;;5085009;28;20191;-82
2023/10/11 10:55:05;;;;;;;21.87;8.63;;;23.20;57.50;;;;;;5085596;28;20274;-83
2023/10/11 10:57:32;;;;;;;10.73;7.97;;;23.20;57.30;;;;;;5085361;28;20529;-82
2023/10/11 11:00:05;;;;;;;11.33;8.50;;;23.20;57.20;;;;;;5087202;28;20184;-83
2023/10/11 11:02:35;;;;;;;14.10;8.40;;;23.10;57.30;;;;;;5087380;28;20209;-82
2023/10/11 11:05:01;;;;;;;15.07;8.53;;;23.10;57.40;;;;;;5074733;28;20185;-82
2023/10/11 11:07:27;;;;;;;13.30;8.27;;;23.10;56.90;;;;;;5076486;28;20181;-82
2023/10/11 11:09:57;;;;;;;13.23;7.83;;;23.00;57.20;;;;;;5077062;28;20196;-82
2023/10/11 11:12:31;;;;;;;12.23;8.30;;;23.10;57.40;;;;;;5077541;28;20176;-83
2023/10/11 11:15:00;;;;;;;12.93;8.60;;;23.20;57.50;;;;;;5074366;28;20195;-82
2023/10/11 11:17:47;;;;;;;12.73;8.17;;;23.20;57.30;;;;;;5086604;28;20679;-82
2023/10/11 11:20:28;;;;;;;11.60;8.47;;;23.20;57.20;;;;;;5085455;28;20187;-82
2023/10/11 11:22:55;;;;;;;12.90;8.53;;;23.20;57.40;;;;;;5075597;28;20205;-83
2023/10/11 11:28:17;;;;;;;13.53;8.83;;;23.30;57.20;;;;;;5081643;28;20276;-84
2023/10/11 11:30:57;;;;;;;13.73;8.57;;;23.30;56.90;;;;;;5078508;28;20212;-84
2023/10/11 11:33:34;;;;;;;14.03;7.60;;;23.40;57.00;;;;;;5093065;28;20180;-82
2023/10/11 11:36:00;;;;;;;12.87;8.27;;;23.40;57.00;;;;;;5090086;28;20636;-82
2023/10/11 11:38:30;;;;;;;14.20;8.13;;;23.40;57.00;;;;;;5091881;28;20204;-84
2023/10/11 11:41:03;;;;;;;14.40;8.47;;;23.50;56.90;;;;;;5097620;28;20176;-84
2023/10/11 11:43:33;;;;;;;15.50;7.97;;;23.50;56.70;;;;;;5091626;28;20281;-84
2023/10/11 11:46:01;;;;;;;16.63;8.07;;;23.60;56.80;;;;;;5093837;28;20321;-84
2023/10/11 11:48:27;;;;;;;11.73;8.23;;;23.60;56.50;;;;;;5089042;28;20181;-84
2023/10/11 11:50:56;;;;;;;15.93;8.43;;;23.60;56.50;;;;;;5098273;28;20207;-85
2023/10/11 11:53:22;;;;;;;9.27;8.17;;;23.60;56.50;;;;;;5095620;28;20233;-85
2023/10/11 11:55:48;;;;;;;10.97;7.93;;;23.70;56.50;;;;;;5075951;28;20174;-84
2023/10/11 11:58:16;;;;;;;17.07;8.37;;;23.70;56.40;;;;;;5087453;28;20204;-83
2023/10/11 12:03:54;;;;;;;12.10;7.80;;;23.60;56.20;;;;;;5071205;28;20217;-82
2023/10/11 12:06:22;;;;;;;12.73;7.20;;;23.70;56.30;;;;;;5070814;28;20197;-82
2023/10/11 12:08:57;;;;;;;16.10;7.93;;;23.70;56.10;;;;;;5054971;28;20208;-82
2023/10/11 12:11:29;;;;;;;11.90;7.40;;;23.70;55.80;;;;;;5050243;28;20200;-81
2023/10/11 12:14:03;;;;;;;15.47;7.10;;;23.70;56.00;;;;;;5051544;28;20180;-85
2023/10/11 12:16:29;;;;;;;13.03;8.23;;;23.80;56.00;;;;;;5070800;28;20660;-84
2023/10/11 12:18:59;;;;;;;11.30;7.17;;;23.90;55.90;;;;;;5069721;28;20208;-83
2023/10/11 12:21:29;;;;;;;12.80;6.80;;;23.90;55.90;;;;;;5071524;28;20247;-84
2023/10/11 12:23:56;;;;;;;12.40;7.33;;;24.00;55.70;;;;;;5070189;28;20267;-83
2023/10/11 12:26:26;;;;;;;12.93;7.63;;;24.00;55.60;;;;;;5053306;28;20590;-85
2023/10/11 12:28:52;;;;;;;12.77;7.27;;;24.10;55.50;;;;;;5052354;28;20280;-83
2023/10/11 12:31:17;;;;;;;14.30;6.57;;;24.10;55.40;;;;;;5050260;28;20272;-83
2023/10/11 12:33:44;;;;;;;9.40;6.40;;;24.10;55.30;;;;;;5073245;28;20197;-83
2023/10/11 12:36:09;;;;;;;14.97;7.10;;;24.10;55.00;;;;;;5087124;28;20578;-83
2023/10/11 12:38:39;;;;;;;10.50;6.53;;;24.10;54.30;;;;;;5089496;28;20226;-83
2023/10/11 12:41:06;;;;;;;14.00;6.63;;;24.10;54.40;;;;;;5076667;28;20288;-82
2023/10/11 12:43:32;;;;;;;9.53;6.80;;;24.00;54.80;;;;;;5086947;28;20688;-83
2023/10/11 12:45:59;;;;;;;13.47;7.33;;;24.00;54.00;;;;;;5091286;28;20186;-83
2023/10/11 12:48:25;;;;;;;12.07;6.97;;;24.10;54.30;;;;;;5091817;28;20180;-83
2023/10/11 12:50:50;;;;;;;12.47;6.53;;;24.10;54.00;;;;;;5074302;28;20187;-82
2023/10/11 12:53:16;;;;;;;13.73;6.93;;;24.20;53.90;;;;;;5072720;28;20177;-83
2023/10/11 12:55:45;;;;;;;10.53;6.27;;;24.30;53.90;;;;;;5081533;28;20652;-83
2023/10/11 12:58:12;;;;;;;12.10;6.33;;;24.20;53.10;;;;;;5081688;28;20268;-83
2023/10/11 13:00:53;;;;;;;15.07;6.70;;;24.20;52.10;;;;;;5086610;28;20181;-83
2023/10/11 13:03:25;;;;;;;21.80;7.20;;;24.20;52.80;;;;;;5085983;28;20248;-85
2023/10/11 13:05:55;;;;;;;13.87;6.70;;;24.10;52.20;;;;;;5087714;28;20199;-82
2023/10/11 13:08:24;;;;;;;12.17;6.43;;;24.00;52.30;;;;;;5091770;28;20180;-83
2023/10/11 13:10:51;;;;;;;15.17;6.27;;;23.90;52.70;;;;;;5078729;28;20541;-83
2023/10/11 13:13:18;;;;;;;13.30;6.70;;;24.10;53.00;;;;;;5080049;28;20196;-83
2023/10/11 13:16:00;;;;;;;15.00;6.47;;;24.10;53.00;;;;;;5079884;28;20242;-83
2023/10/11 13:18:32;;;;;;;11.00;6.23;;;24.10;52.60;;;;;;5088721;28;20184;-85
2023/10/11 13:20:59;;;;;;;12.00;6.93;;;24.10;52.50;;;;;;5095255;28;20220;-84
2023/10/11 13:23:28;;;;;;;8.50;6.53;;;24.10;52.60;;;;;;5072167;28;20212;-86
2023/10/11 13:26:01;;;;;;;11.50;6.33;;;24.10;51.90;;;;;;5082427;28;20325;-83
2023/10/11 13:28:28;;;;;;;8.60;6.13;;;24.10;52.20;;;;;;5090329;28;21431;-85
2023/10/11 13:31:01;;;;;;;10.37;6.77;;;24.10;52.20;;;;;;5089434;28;20184;-85
2023/10/11 13:33:30;;;;;;;10.83;6.50;;;24.10;52.00;;;;;;5091122;28;20188;-84
2023/10/11 13:35:58;;;;;;;10.10;6.63;;;24.10;52.00;;;;;;5089229;28;20172;-84
2023/10/11 13:38:24;;;;;;;11.87;6.67;;;24.10;52.10;;;;;;5089455;28;20573;-84
2023/10/11 13:40:52;;;;;;;11.60;6.33;;;24.10;52.00;;;;;;5097798;28;20180;-85
2023/10/11 13:43:22;;;;;;;15.03;6.90;;;24.10;51.90;;;;;;5095594;28;20311;-83
2023/10/11 13:45:56;;;;;;;10.17;6.50;;;24.10;51.80;;;;;;5092195;28;20374;-84
2023/10/11 13:48:26;;;;;;;11.43;7.23;;;24.10;52.00;;;;;;5099598;28;20638;-83
2023/10/11 13:50:56;;;;;;;13.53;6.50;;;24.10;52.10;;;;;;5081782;28;20204;-83
2023/10/11 13:53:24;;;;;;;12.63;6.53;;;24.10;51.70;;;;;;5101160;28;20723;-84